Time;durP1;ratioP1;P1;durP2;ratioP2;P2;SDS_P1;SDS_P2;PMS_P1;PMS_P2;Temp;Humidity;BMP_temperature;BMP_pressure;BME280_temperature;BME280_humidity;BME280_pressure;Samples;Min_cycle;Max_cycle;Signal;HPM_P1;HPM_P2
2023/08/19 00:01:44;;;;;;;;;;;;;;;;;;5069259;28;5103;-63
2023/08/19 00:04:10;;;;;;;;;;;;;;;;;;5064782;28;5090;-61
2023/08/19 00:06:36;;;;;;;;;;;;;;;;;;5063296;28;5179;-63
2023/08/19 00:09:03;;;;;;;;;;;;;;;;;;5055109;28;5089;-62
2023/08/19 00:11:29;;;;;;;;;;;;;;;;;;5066737;28;1136;-61
2023/08/19 00:13:54;;;;;;;;;;;;;;;;;;5061873;28;4949;-64
2023/08/19 00:16:20;;;;;;;;;;;;;;;;;;5063399;28;5040;-66
2023/08/19 00:18:45;;;;;;;;;;;;;;;;;;5061394;28;4891;-62
2023/08/19 00:21:11;;;;;;;;;;;;;;;;;;5058766;28;4589;-60
2023/08/19 00:23:36;;;;;;;;;;;;;;;;;;5068379;28;1097;-62
2023/08/19 00:26:02;;;;;;;;;;;;;;;;;;5062369;28;4395;-60
2023/08/19 00:28:27;;;;;;;;;;;;;;;;;;5064675;28;5069;-60
2023/08/19 00:30:52;;;;;;;;;;;;;;;;;;5068716;28;4571;-61
2023/08/19 00:33:18;;;;;;;;;;;;;;;;;;5068902;28;4849;-62
2023/08/19 00:35:43;;;;;;;;;;;;;;;;;;5062145;28;5078;-61
2023/08/19 00:38:09;;;;;;;;;;;;;;;;;;5068682;28;1168;-64
2023/08/19 00:40:34;;;;;;;;;;;;;;;;;;5068072;28;4509;-62
2023/08/19 00:42:59;;;;;;;;;;;;;;;;;;5068436;28;4615;-61
2023/08/19 00:45:25;;;;;;;;;;;;;;;;;;5059320;28;5038;-60
2023/08/19 00:47:50;;;;;;;;;;;;;;;;;;5063072;28;5097;-66
2023/08/19 00:50:16;;;;;;;;;;;;;;;;;;5069560;28;1057;-62
2023/08/19 00:52:41;;;;;;;;;;;;;;;;;;5065997;28;4845;-62
2023/08/19 00:55:07;;;;;;;;;;;;;;;;;;5050698;28;4458;-62
2023/08/19 00:57:32;;;;;;;;;;;;;;;;;;5067086;28;4466;-62
2023/08/19 00:59:57;;;;;;;;;;;;;;;;;;5068654;28;5238;-60
2023/08/19 01:02:22;;;;;;;;;;;;;;;;;;5063392;28;1139;-61
2023/08/19 01:04:48;;;;;;;;;;;;;;;;;;5068268;28;4745;-60
2023/08/19 01:07:32;;;;;;;;;;;;;;;;;;5067109;28;5149;-61
2023/08/19 01:10:07;;;;;;;;;;;;;;;;;;5065464;28;4476;-62
2023/08/19 01:12:38;;;;;;;;;;;;;;;;;;5066856;28;4598;-61
2023/08/19 01:15:06;;;;;;;;;;;;;;;;;;5071778;28;4853;-60
2023/08/19 01:17:31;;;;;;;;;;;;;;;;;;5057282;28;4768;-61
2023/08/19 01:19:57;;;;;;;;;;;;;;;;;;5057810;28;4987;-61
2023/08/19 01:22:27;;;;;;;;;;;;;;;;;;5063950;28;5113;-62
2023/08/19 01:24:52;;;;;;;;;;;;;;;;;;5049321;28;4860;-62
2023/08/19 01:27:21;;;;;;;;;;;;;;;;;;5064253;28;4559;-59
2023/08/19 01:29:46;;;;;;;;;;;;;;;;;;5071407;28;5546;-61
2023/08/19 01:32:12;;;;;;;;;;;;;;;;;;5076074;28;3096;-61
2023/08/19 01:34:37;;;;;;;;;;;;;;;;;;5072724;28;4981;-61
2023/08/19 01:37:03;;;;;;;;;;;;;;;;;;5069567;28;5190;-61
2023/08/19 01:39:29;;;;;;;;;;;;;;;;;;5077804;28;5074;-61
2023/08/19 01:41:54;;;;;;;;;;;;;;;;;;5065083;28;4413;-60
2023/08/19 01:44:20;;;;;;;;;;;;;;;;;;5054910;28;1333;-62
2023/08/19 01:46:45;;;;;;;;;;;;;;;;;;5076727;28;4909;-59
2023/08/19 01:49:10;;;;;;;;;;;;;;;;;;5066868;28;5102;-59
2023/08/19 01:51:35;;;;;;;;;;;;;;;;;;5075167;28;5060;-59
2023/08/19 01:54:01;;;;;;;;;;;;;;;;;;5077004;28;4448;-59
2023/08/19 01:56:26;;;;;;;;;;;;;;;;;;5079155;28;1356;-59
2023/08/19 01:58:54;;;;;;;;;;;;;;;;;;5071001;28;4579;-62
2023/08/19 02:01:19;;;;;;;;;;;;;;;;;;5079148;28;5034;-60
2023/08/19 02:03:44;;;;;;;;;;;;;;;;;;5064005;28;5146;-59
2023/08/19 02:06:10;;;;;;;;;;;;;;;;;;5075843;28;5023;-59
2023/08/19 02:08:35;;;;;;;;;;;;;;;;;;5077779;28;1973;-61
2023/08/19 02:11:00;;;;;;;;;;;;;;;;;;5078331;28;4856;-61
2023/08/19 02:13:25;;;;;;;;;;;;;;;;;;5073727;28;4428;-63
2023/08/19 02:15:51;;;;;;;;;;;;;;;;;;5076783;28;5011;-65
2023/08/19 02:18:17;;;;;;;;;;;;;;;;;;5070116;28;5063;-61
2023/08/19 02:20:45;;;;;;;;;;;;;;;;;;5070593;28;5094;-62
2023/08/19 02:23:11;;;;;;;;;;;;;;;;;;5073451;28;1564;-60
2023/08/19 02:25:36;;;;;;;;;;;;;;;;;;5069648;28;4882;-59
2023/08/19 02:28:01;;;;;;;;;;;;;;;;;;5074991;28;4464;-60
2023/08/19 02:30:26;;;;;;;;;;;;;;;;;;5060447;28;5033;-58
2023/08/19 02:32:51;;;;;;;;;;;;;;;;;;5079555;28;5396;-62
2023/08/19 02:35:17;;;;;;;;;;;;;;;;;;5079632;28;1160;-59
2023/08/19 02:37:43;;;;;;;;;;;;;;;;;;5082385;28;5588;-59
2023/08/19 02:40:08;;;;;;;;;;;;;;;;;;5073248;28;4968;-60
2023/08/19 02:42:33;;;;;;;;;;;;;;;;;;5072903;28;4426;-59
2023/08/19 02:44:59;;;;;;;;;;;;;;;;;;5062046;28;4855;-59
2023/08/19 02:47:24;;;;;;;;;;;;;;;;;;5074507;28;1396;-61
2023/08/19 02:49:50;;;;;;;;;;;;;;;;;;5066561;28;5059;-60
2023/08/19 02:52:15;;;;;;;;;;;;;;;;;;5076490;28;5001;-61
2023/08/19 02:54:41;;;;;;;;;;;;;;;;;;5067946;28;4826;-60
2023/08/19 02:57:06;;;;;;;;;;;;;;;;;;5074426;28;4849;-61
2023/08/19 02:59:31;;;;;;;;;;;;;;;;;;5071286;28;1182;-60
2023/08/19 03:01:56;;;;;;;;;;;;;;;;;;5073594;28;5012;-60
2023/08/19 03:04:22;;;;;;;;;;;;;;;;;;5078328;28;5067;-61
2023/08/19 03:06:47;;;;;;;;;;;;;;;;;;5071677;28;5166;-59
2023/08/19 03:09:12;;;;;;;;;;;;;;;;;;5069771;28;4981;-66
2023/08/19 03:11:39;;;;;;;;;;;;;;;;;;5066651;28;4997;-60
2023/08/19 03:14:04;;;;;;;;;;;;;;;;;;5073804;28;1083;-60
2023/08/19 03:16:30;;;;;;;;;;;;;;;;;;5080275;28;5904;-62
2023/08/19 03:18:55;;;;;;;;;;;;;;;;;;5062539;28;4986;-60
2023/08/19 03:21:20;;;;;;;;;;;;;;;;;;5075146;28;4829;-60
2023/08/19 03:23:46;;;;;;;;;;;;;;;;;;5074022;28;4827;-60
2023/08/19 03:26:11;;;;;;;;;;;;;;;;;;5071139;28;1136;-59
2023/08/19 03:28:36;;;;;;;;;;;;;;;;;;5081885;28;5160;-59
2023/08/19 03:31:08;;;;;;;;;;;;;;;;;;5082983;28;4902;-59
2023/08/19 03:33:33;;;;;;;;;;;;;;;;;;5066423;28;5049;-61
2023/08/19 03:35:59;;;;;;;;;;;;;;;;;;5084640;28;5435;-58
2023/08/19 03:38:24;;;;;;;;;;;;;;;;;;5077440;28;1313;-61
2023/08/19 03:40:50;;;;;;;;;;;;;;;;;;5084663;28;4889;-60
2023/08/19 03:43:15;;;;;;;;;;;;;;;;;;5085743;28;4422;-59
2023/08/19 03:45:40;;;;;;;;;;;;;;;;;;5082380;28;5211;-61
2023/08/19 03:48:05;;;;;;;;;;;;;;;;;;5081522;28;4989;-59
2023/08/19 03:50:31;;;;;;;;;;;;;;;;;;5074500;28;1094;-61
2023/08/19 03:52:56;;;;;;;;;;;;;;;;;;5075989;28;5207;-60
2023/08/19 03:55:21;;;;;;;;;;;;;;;;;;5077603;28;4669;-59
2023/08/19 03:57:46;;;;;;;;;;;;;;;;;;5074907;28;4907;-58
2023/08/19 04:00:12;;;;;;;;;;;;;;;;;;5082128;28;5014;-59
2023/08/19 04:02:37;;;;;;;;;;;;;;;;;;5072924;28;1047;-59
2023/08/19 04:05:03;;;;;;;;;;;;;;;;;;5082081;28;4533;-61
2023/08/19 04:07:28;;;;;;;;;;;;;;;;;;5078498;28;5014;-60
2023/08/19 04:09:54;;;;;;;;;;;;;;;;;;5072961;28;5289;-60
2023/08/19 04:12:20;;;;;;;;;;;;;;;;;;5078701;28;4853;-62
2023/08/19 04:14:45;;;;;;;;;;;;;;;;;;5078282;28;4624;-59
2023/08/19 04:17:10;;;;;;;;;;;;;;;;;;5075435;28;4725;-62
2023/08/19 04:19:36;;;;;;;;;;;;;;;;;;5075849;28;5174;-60
2023/08/19 04:22:01;;;;;;;;;;;;;;;;;;5056034;28;5073;-60
2023/08/19 04:24:27;;;;;;;;;;;;;;;;;;5075761;28;5133;-60
2023/08/19 04:26:53;;;;;;;;;;;;;;;;;;5075643;28;5035;-59
2023/08/19 04:29:18;;;;;;;;;;;;;;;;;;5084318;28;1941;-59
2023/08/19 04:31:43;;;;;;;;;;;;;;;;;;5083804;28;5089;-60
2023/08/19 04:34:09;;;;;;;;;;;;;;;;;;5074303;28;4976;-59
2023/08/19 04:36:34;;;;;;;;;;;;;;;;;;5081627;28;4904;-62
2023/08/19 04:38:59;;;;;;;;;;;;;;;;;;5084628;28;5039;-60
2023/08/19 04:41:25;;;;;;;;;;;;;;;;;;5061771;28;1806;-60
2023/08/19 04:43:50;;;;;;;;;;;;;;;;;;5081728;28;5436;-60
2023/08/19 04:46:16;;;;;;;;;;;;;;;;;;5085663;28;5003;-61
2023/08/19 04:48:41;;;;;;;;;;;;;;;;;;5066109;28;5139;-59
2023/08/19 04:51:07;;;;;;;;;;;;;;;;;;5079671;28;4494;-60
2023/08/19 04:53:32;;;;;;;;;;;;;;;;;;5080868;28;1149;-62
2023/08/19 04:56:04;;;;;;;;;;;;;;;;;;5078495;28;5110;-60
2023/08/19 04:58:29;;;;;;;;;;;;;;;;;;5064700;28;4930;-61
2023/08/19 05:00:54;;;;;;;;;;;;;;;;;;5078531;28;5116;-60
2023/08/19 05:03:20;;;;;;;;;;;;;;;;;;5080863;28;4954;-62
2023/08/19 05:05:45;;;;;;;;;;;;;;;;;;5079462;28;5270;-60
2023/08/19 05:08:10;;;;;;;;;;;;;;;;;;5079683;28;1983;-60
2023/08/19 05:10:36;;;;;;;;;;;;;;;;;;5070272;28;4969;-60
2023/08/19 05:13:01;;;;;;;;;;;;;;;;;;5084529;28;4958;-59
2023/08/19 05:15:27;;;;;;;;;;;;;;;;;;5072489;28;4853;-60
2023/08/19 05:17:52;;;;;;;;;;;;;;;;;;5071634;28;5027;-59
2023/08/19 05:20:17;;;;;;;;;;;;;;;;;;5076359;28;1297;-60
2023/08/19 05:22:42;;;;;;;;;;;;;;;;;;5074230;28;4468;-61
2023/08/19 05:25:08;;;;;;;;;;;;;;;;;;5072559;28;4976;-59
2023/08/19 05:27:34;;;;;;;;;;;;;;;;;;5072590;28;4868;-60
2023/08/19 05:29:59;;;;;;;;;;;;;;;;;;5073494;28;4478;-60
2023/08/19 05:32:24;;;;;;;;;;;;;;;;;;5076109;28;1461;-60
2023/08/19 05:34:49;;;;;;;;;;;;;;;;;;5079493;28;5227;-60
2023/08/19 05:37:15;;;;;;;;;;;;;;;;;;5084834;28;5018;-59
2023/08/19 05:39:40;;;;;;;;;;;;;;;;;;5079634;28;4860;-60
2023/08/19 05:42:06;;;;;;;;;;;;;;;;;;5081640;28;4719;-60
2023/08/19 05:44:31;;;;;;;;;;;;;;;;;;5064450;28;1207;-59
2023/08/19 05:46:57;;;;;;;;;;;;;;;;;;5078092;28;4449;-61
2023/08/19 05:49:22;;;;;;;;;;;;;;;;;;5067704;28;5018;-61
2023/08/19 05:51:48;;;;;;;;;;;;;;;;;;5081434;28;5301;-60
2023/08/19 05:54:13;;;;;;;;;;;;;;;;;;5076800;28;4892;-62
2023/08/19 05:56:38;;;;;;;;;;;;;;;;;;5062587;28;5097;-60
2023/08/19 05:59:03;;;;;;;;;;;;;;;;;;5064944;28;3255;-59
2023/08/19 06:01:29;;;;;;;;;;;;;;;;;;5071990;28;5274;-64
2023/08/19 06:03:54;;;;;;;;;;;;;;;;;;5062341;28;5008;-60
2023/08/19 06:06:19;;;;;;;;;;;;;;;;;;5081763;28;5051;-61
2023/08/19 06:08:44;;;;;;;;;;;;;;;;;;5078405;28;5079;-61
2023/08/19 06:11:10;;;;;;;;;;;;;;;;;;5064509;28;3382;-59
2023/08/19 06:13:35;;;;;;;;;;;;;;;;;;5069689;28;4929;-60
2023/08/19 06:16:00;;;;;;;;;;;;;;;;;;5083209;28;5110;-59
2023/08/19 06:18:26;;;;;;;;;;;;;;;;;;5068634;28;5155;-60
2023/08/19 06:20:51;;;;;;;;;;;;;;;;;;5049308;28;5110;-59
2023/08/19 06:23:20;;;;;;;;;;;;;;;;;;5084877;28;1227;-59
2023/08/19 06:25:46;;;;;;;;;;;;;;;;;;5068772;28;4988;-59
2023/08/19 06:28:11;;;;;;;;;;;;;;;;;;5064038;28;5142;-59
2023/08/19 06:30:37;;;;;;;;;;;;;;;;;;5074206;28;4602;-60
2023/08/19 06:33:02;;;;;;;;;;;;;;;;;;5079731;28;4980;-60
2023/08/19 06:35:27;;;;;;;;;;;;;;;;;;5073338;28;3330;-60
2023/08/19 06:37:53;;;;;;;;;;;;;;;;;;5076525;28;4886;-60
2023/08/19 06:40:18;;;;;;;;;;;;;;;;;;5049916;28;5175;-60
2023/08/19 06:42:44;;;;;;;;;;;;;;;;;;5071621;28;4473;-58
2023/08/19 06:45:10;;;;;;;;;;;;;;;;;;5048706;28;5082;-60
2023/08/19 06:47:35;;;;;;;;;;;;;;;;;;5063387;28;1360;-59
2023/08/19 06:50:00;;;;;;;;;;;;;;;;;;5062106;28;4962;-59
2023/08/19 06:52:26;;;;;;;;;;;;;;;;;;5075830;28;5179;-58
2023/08/19 06:54:51;;;;;;;;;;;;;;;;;;5074419;28;4460;-59
2023/08/19 06:57:21;;;;;;;;;;;;;;;;;;5074807;28;4543;-59
2023/08/19 06:59:47;;;;;;;;;;;;;;;;;;5075380;28;5042;-58
2023/08/19 07:02:12;;;;;;;;;;;;;;;;;;5072356;28;3303;-57
2023/08/19 07:04:38;;;;;;;;;;;;;;;;;;5071637;28;5100;-61
2023/08/19 07:07:04;;;;;;;;;;;;;;;;;;5055318;28;5302;-57
2023/08/19 07:09:29;;;;;;;;;;;;;;;;;;5072227;28;5072;-58
2023/08/19 07:11:55;;;;;;;;;;;;;;;;;;5083465;28;4462;-59
2023/08/19 07:14:21;;;;;;;;;;;;;;;;;;5079416;28;2343;-60
2023/08/19 07:16:50;;;;;;;;;;;;;;;;;;5046581;28;5266;-60
2023/08/19 07:19:16;;;;;;;;;;;;;;;;;;5073857;28;5029;-60
2023/08/19 07:21:41;;;;;;;;;;;;;;;;;;5069257;28;5005;-58
2023/08/19 07:24:07;;;;;;;;;;;;;;;;;;5066872;28;5098;-57
2023/08/19 07:26:32;;;;;;;;;;;;;;;;;;5080460;28;3319;-60
2023/08/19 07:28:59;;;;;;;;;;;;;;;;;;5061883;28;4468;-59
2023/08/19 07:31:24;;;;;;;;;;;;;;;;;;5065820;28;5129;-61
2023/08/19 07:33:50;;;;;;;;;;;;;;;;;;5064986;28;4778;-59
2023/08/19 07:36:15;;;;;;;;;;;;;;;;;;5064817;28;5031;-58
2023/08/19 07:38:40;;;;;;;;;;;;;;;;;;5066187;28;4820;-58
2023/08/19 07:41:05;;;;;;;;;;;;;;;;;;5064223;28;3316;-59
2023/08/19 07:43:31;;;;;;;;;;;;;;;;;;5066942;28;4932;-59
2023/08/19 07:45:56;;;;;;;;;;;;;;;;;;5069637;28;4431;-57
2023/08/19 07:48:21;;;;;;;;;;;;;;;;;;5069512;28;5030;-57
2023/08/19 07:50:47;;;;;;;;;;;;;;;;;;5063531;28;4997;-57
2023/08/19 07:53:12;;;;;;;;;;;;;;;;;;5071361;28;3363;-56
2023/08/19 07:55:38;;;;;;;;;;;;;;;;;;5063202;28;5003;-56
2023/08/19 07:58:03;;;;;;;;;;;;;;;;;;5074984;28;5010;-54
2023/08/19 08:00:28;;;;;;;;;;;;;;;;;;5067789;28;5017;-55
2023/08/19 08:02:53;;;;;;;;;;;;;;;;;;5069609;28;5054;-55
2023/08/19 08:05:19;;;;;;;;;;;;;;;;;;5061410;28;1109;-54
2023/08/19 08:07:44;;;;;;;;;;;;;;;;;;5065965;28;4971;-55
2023/08/19 08:10:10;;;;;;;;;;;;;;;;;;5067353;28;5154;-56
2023/08/19 08:12:35;;;;;;;;;;;;;;;;;;5058537;28;5017;-54
2023/08/19 08:15:00;;;;;;;;;;;;;;;;;;5058422;28;6071;-55
2023/08/19 08:17:26;;;;;;;;;;;;;;;;;;5056827;28;4756;-55
2023/08/19 08:19:51;;;;;;;;;;;;;;;;;;5058321;28;5321;-54
2023/08/19 08:22:16;;;;;;;;;;;;;;;;;;5061307;28;5150;-52
2023/08/19 08:24:42;;;;;;;;;;;;;;;;;;5052299;28;4932;-52
2023/08/19 08:27:07;;;;;;;;;;;;;;;;;;5068630;28;4571;-58
2023/08/19 08:29:32;;;;;;;;;;;;;;;;;;5066815;28;3418;-54
2023/08/19 08:31:58;;;;;;;;;;;;;;;;;;5061724;28;4918;-54
2023/08/19 08:34:23;;;;;;;;;;;;;;;;;;5062301;28;4480;-57
2023/08/19 08:36:48;;;;;;;;;;;;;;;;;;5058054;28;4984;-54
2023/08/19 08:39:14;;;;;;;;;;;;;;;;;;5056756;28;5060;-54
2023/08/19 08:41:42;;;;;;;;;;;;;;;;;;5058289;28;4489;-56
2023/08/19 08:44:08;;;;;;;;;;;;;;;;;;5064185;28;3262;-55
2023/08/19 08:46:34;;;;;;;;;;;;;;;;;;5059716;28;4461;-57
2023/08/19 08:48:59;;;;;;;;;;;;;;;;;;5058114;28;5020;-54
2023/08/19 08:51:25;;;;;;;;;;;;;;;;;;5041393;28;5059;-49
2023/08/19 08:53:51;;;;;;;;;;;;;;;;;;5078072;28;5130;-52
2023/08/19 08:56:16;;;;;;;;;;;;;;;;;;5061756;28;3431;-57
2023/08/19 08:58:41;;;;;;;;;;;;;;;;;;5058925;28;5037;-60
2023/08/19 09:01:06;;;;;;;;;;;;;;;;;;5056503;28;4452;-58
2023/08/19 09:03:32;;;;;;;;;;;;;;;;;;5045701;28;5142;-58
2023/08/19 09:05:58;;;;;;;;;;;;;;;;;;5060275;28;5103;-59
2023/08/19 09:08:31;;;;;;;;;;;;;;;;;;5061682;28;1991;-58
2023/08/19 09:11:00;;;;;;;;;;;;;;;;;;5064714;28;4962;-58
2023/08/19 09:13:25;;;;;;;;;;;;;;;;;;5048705;28;5013;-59
2023/08/19 09:15:51;;;;;;;;;;;;;;;;;;5072250;28;5001;-59
2023/08/19 09:18:16;;;;;;;;;;;;;;;;;;5058259;28;4842;-58
2023/08/19 09:20:41;;;;;;;;;;;;;;;;;;5067257;28;5020;-59
2023/08/19 09:23:07;;;;;;;;;;;;;;;;;;5068216;28;1518;-58
2023/08/19 09:25:32;;;;;;;;;;;;;;;;;;5046746;28;4902;-58
2023/08/19 09:27:58;;;;;;;;;;;;;;;;;;5035744;28;5361;-58
2023/08/19 09:30:25;;;;;;;;;;;;;;;;;;5068400;28;5028;-58
2023/08/19 09:32:51;;;;;;;;;;;;;;;;;;5050137;28;5275;-58
2023/08/19 09:35:16;;;;;;;;;;;;;;;;;;5065801;28;1224;-58
2023/08/19 09:37:41;;;;;;;;;;;;;;;;;;5067828;28;4872;-58
2023/08/19 09:40:08;;;;;;;;;;;;;;;;;;5067273;28;4446;-58
2023/08/19 09:42:33;;;;;;;;;;;;;;;;;;5067661;28;5109;-58
2023/08/19 09:44:58;;;;;;;;;;;;;;;;;;5067362;28;5164;-59
2023/08/19 09:47:23;;;;;;;;;;;;;;;;;;5067272;28;1370;-59
2023/08/19 09:49:52;;;;;;;;;;;;;;;;;;5064244;28;4998;-59
2023/08/19 09:52:17;;;;;;;;;;;;;;;;;;5062779;28;5167;-58
2023/08/19 09:54:52;;;;;;;;;;;;;;;;;;5064815;28;5047;-58
2023/08/19 09:57:18;;;;;;;;;;;;;;;;;;5064932;28;5245;-59
2023/08/19 09:59:43;;;;;;;;;;;;;;;;;;5065197;28;4927;-58
2023/08/19 10:02:09;;;;;;;;;;;;;;;;;;5057581;28;1114;-58
2023/08/19 10:04:34;;;;;;;;;;;;;;;;;;5049504;28;5024;-59
2023/08/19 10:07:00;;;;;;;;;;;;;;;;;;5067136;28;4950;-58
2023/08/19 10:09:25;;;;;;;;;;;;;;;;;;5062696;28;4985;-59
2023/08/19 10:11:51;;;;;;;;;;;;;;;;;;5052657;28;4609;-58
2023/08/19 10:14:16;;;;;;;;;;;;;;;;;;5049698;28;1097;-58
2023/08/19 10:16:43;;;;;;;;;;;;;;;;;;5066914;28;4760;-58
2023/08/19 10:19:08;;;;;;;;;;;;;;;;;;5062079;28;4972;-60
2023/08/19 10:21:33;;;;;;;;;;;;;;;;;;5065429;28;4729;-58
2023/08/19 10:23:59;;;;;;;;;;;;;;;;;;5066790;28;5065;-58
2023/08/19 10:26:24;;;;;;;;;;;;;;;;;;5049490;28;1345;-60
2023/08/19 10:29:00;;;;;;;;;;;;;;;;;;5064054;28;5144;-60
2023/08/19 10:31:26;;;;;;;;;;;;;;;;;;5067151;28;4494;-60
2023/08/19 10:33:53;;;;;;;;;;;;;;;;;;5067078;28;4974;-59
2023/08/19 10:36:19;;;;;;;;;;;;;;;;;;5067442;28;4985;-60
2023/08/19 10:38:47;;;;;;;;;;;;;;;;;;5062258;28;4642;-60
2023/08/19 10:41:17;;;;;;;;;;;;;;;;;;5071115;28;1133;-59
2023/08/19 10:44:01;;;;;;;;;;;;;;;;;;5048540;28;4827;-60
2023/08/19 10:46:28;;;;;;;;;;;;;;;;;;5063404;28;5058;-59
2023/08/19 10:48:53;;;;;;;;;;;;;;;;;;5064236;28;5026;-57
2023/08/19 10:51:18;;;;;;;;;;;;;;;;;;5066909;28;5050;-60
2023/08/19 10:53:50;;;;;;;;;;;;;;;;;;5066673;28;4502;-60
2023/08/19 10:56:17;;;;;;;;;;;;;;;;;;5063440;28;1128;-58
2023/08/19 10:58:42;;;;;;;;;;;;;;;;;;5067111;28;4947;-58
2023/08/19 11:01:08;;;;;;;;;;;;;;;;;;5066826;28;5284;-58
2023/08/19 11:03:33;;;;;;;;;;;;;;;;;;5066815;28;4608;-58
2023/08/19 11:05:58;;;;;;;;;;;;;;;;;;5055510;28;4801;-59
2023/08/19 11:08:23;;;;;;;;;;;;;;;;;;5065133;28;1917;-59
2023/08/19 11:10:49;;;;;;;;;;;;;;;;;;5065026;28;4950;-58
2023/08/19 11:13:14;;;;;;;;;;;;;;;;;;5065300;28;4876;-59
2023/08/19 11:15:40;;;;;;;;;;;;;;;;;;5048429;28;5226;-59
2023/08/19 11:18:05;;;;;;;;;;;;;;;;;;5063643;28;4991;-58
2023/08/19 11:20:30;;;;;;;;;;;;;;;;;;5066862;28;1185;-58
2023/08/19 11:22:55;;;;;;;;;;;;;;;;;;5063922;28;5089;-58
2023/08/19 11:25:21;;;;;;;;;;;;;;;;;;5066614;28;4825;-58
2023/08/19 11:27:46;;;;;;;;;;;;;;;;;;5065625;28;5035;-58
2023/08/19 11:30:12;;;;;;;;;;;;;;;;;;5071715;28;4531;-58
2023/08/19 11:32:37;;;;;;;;;;;;;;;;;;5063143;28;1086;-58
2023/08/19 11:35:03;;;;;;;;;;;;;;;;;;5066435;28;4849;-58
2023/08/19 11:37:28;;;;;;;;;;;;;;;;;;5068137;28;5287;-58
2023/08/19 11:39:54;;;;;;;;;;;;;;;;;;5070124;28;5495;-58
2023/08/19 11:42:19;;;;;;;;;;;;;;;;;;5060768;28;5118;-60
2023/08/19 11:44:44;;;;;;;;;;;;;;;;;;5069489;28;4677;-58
2023/08/19 11:47:10;;;;;;;;;;;;;;;;;;5070589;28;1285;-58
2023/08/19 11:49:36;;;;;;;;;;;;;;;;;;5065174;28;4840;-57
2023/08/19 11:52:01;;;;;;;;;;;;;;;;;;5051767;28;5138;-58
2023/08/19 11:54:26;;;;;;;;;;;;;;;;;;5068834;28;5101;-59
2023/08/19 11:56:55;;;;;;;;;;;;;;;;;;5069607;28;4493;-60
2023/08/19 11:59:30;;;;;;;;;;;;;;;;;;5064733;28;1089;-60
2023/08/19 12:01:55;;;;;;;;;;;;;;;;;;5069588;28;4455;-59
2023/08/19 12:04:20;;;;;;;;;;;;;;;;;;5068165;28;4457;-63
2023/08/19 12:06:46;;;;;;;;;;;;;;;;;;5068829;28;5621;-57
2023/08/19 12:09:12;;;;;;;;;;;;;;;;;;5058654;28;5140;-61
2023/08/19 12:11:37;;;;;;;;;;;;;;;;;;5066946;28;1128;-60
2023/08/19 12:14:03;;;;;;;;;;;;;;;;;;5069393;28;4445;-60
2023/08/19 12:16:28;;;;;;;;;;;;;;;;;;5066707;28;4725;-59
2023/08/19 12:18:53;;;;;;;;;;;;;;;;;;5050033;28;5109;-59
2023/08/19 12:21:18;;;;;;;;;;;;;;;;;;5069731;28;4917;-59
2023/08/19 12:23:44;;;;;;;;;;;;;;;;;;5066658;28;5088;-60
2023/08/19 12:26:09;;;;;;;;;;;;;;;;;;5068600;28;1132;-59
2023/08/19 12:28:34;;;;;;;;;;;;;;;;;;5069049;28;5055;-59
2023/08/19 12:31:00;;;;;;;;;;;;;;;;;;5068987;28;5515;-59
2023/08/19 12:33:25;;;;;;;;;;;;;;;;;;5069075;28;5108;-59
2023/08/19 12:35:51;;;;;;;;;;;;;;;;;;5062751;28;4691;-59
2023/08/19 12:38:17;;;;;;;;;;;;;;;;;;5069750;28;1133;-59
2023/08/19 12:40:42;;;;;;;;;;;;;;;;;;5068610;28;4988;-59
2023/08/19 12:43:08;;;;;;;;;;;;;;;;;;5068394;28;5105;-59
2023/08/19 12:45:33;;;;;;;;;;;;;;;;;;5060590;28;5088;-59
2023/08/19 12:47:58;;;;;;;;;;;;;;;;;;5067885;28;5061;-59
2023/08/19 12:50:24;;;;;;;;;;;;;;;;;;5051341;28;1974;-59
2023/08/19 12:52:49;;;;;;;;;;;;;;;;;;5066097;28;5032;-59
2023/08/19 12:55:17;;;;;;;;;;;;;;;;;;5069158;28;4945;-60
2023/08/19 12:57:43;;;;;;;;;;;;;;;;;;5068716;28;4648;-59
2023/08/19 13:00:12;;;;;;;;;;;;;;;;;;5068480;28;4448;-59
2023/08/19 13:02:37;;;;;;;;;;;;;;;;;;5061011;28;1191;-59
2023/08/19 13:05:03;;;;;;;;;;;;;;;;;;5069106;28;4905;-58
2023/08/19 13:07:28;;;;;;;;;;;;;;;;;;5068069;28;4986;-59
2023/08/19 13:09:54;;;;;;;;;;;;;;;;;;5066618;28;5216;-60
2023/08/19 13:12:19;;;;;;;;;;;;;;;;;;5059192;28;5192;-59
2023/08/19 13:14:44;;;;;;;;;;;;;;;;;;5067938;28;4955;-59
2023/08/19 13:17:10;;;;;;;;;;;;;;;;;;5067451;28;4732;-59
2023/08/19 13:19:35;;;;;;;;;;;;;;;;;;5064668;28;4981;-59
2023/08/19 13:22:00;;;;;;;;;;;;;;;;;;5068407;28;4919;-58
2023/08/19 13:24:25;;;;;;;;;;;;;;;;;;5067420;28;5009;-59
2023/08/19 13:26:50;;;;;;;;;;;;;;;;;;5065889;28;4504;-59
2023/08/19 13:29:16;;;;;;;;;;;;;;;;;;5066319;28;1967;-58
2023/08/19 13:31:41;;;;;;;;;;;;;;;;;;5068412;28;4443;-58
2023/08/19 13:34:06;;;;;;;;;;;;;;;;;;5068328;28;4693;-59
2023/08/19 13:36:31;;;;;;;;;;;;;;;;;;5067946;28;5240;-58
2023/08/19 13:38:57;;;;;;;;;;;;;;;;;;5060568;28;5088;-59
2023/08/19 13:41:22;;;;;;;;;;;;;;;;;;5068413;28;1131;-59
2023/08/19 13:43:48;;;;;;;;;;;;;;;;;;5068085;28;4955;-59
2023/08/19 13:46:13;;;;;;;;;;;;;;;;;;5066170;28;4749;-59
2023/08/19 13:48:38;;;;;;;;;;;;;;;;;;5059609;28;5039;-60
2023/08/19 13:51:04;;;;;;;;;;;;;;;;;;5067490;28;5051;-59
2023/08/19 13:53:29;;;;;;;;;;;;;;;;;;5067786;28;1258;-59
2023/08/19 13:55:54;;;;;;;;;;;;;;;;;;5062258;28;4892;-59
2023/08/19 13:58:19;;;;;;;;;;;;;;;;;;5067456;28;4604;-58
2023/08/19 14:00:45;;;;;;;;;;;;;;;;;;5066662;28;4735;-59
2023/08/19 14:03:10;;;;;;;;;;;;;;;;;;5068090;28;4491;-60
2023/08/19 14:05:35;;;;;;;;;;;;;;;;;;5058655;28;1286;-59
2023/08/19 14:08:01;;;;;;;;;;;;;;;;;;5066906;28;4711;-59
2023/08/19 14:10:26;;;;;;;;;;;;;;;;;;5065036;28;5094;-59
2023/08/19 14:12:51;;;;;;;;;;;;;;;;;;5067470;28;5072;-58
2023/08/19 14:15:17;;;;;;;;;;;;;;;;;;5059321;28;4916;-60
2023/08/19 14:17:42;;;;;;;;;;;;;;;;;;5065928;28;4868;-59
2023/08/19 14:20:08;;;;;;;;;;;;;;;;;;5067800;28;1092;-59
2023/08/19 14:22:33;;;;;;;;;;;;;;;;;;5064067;28;4852;-60
2023/08/19 14:24:58;;;;;;;;;;;;;;;;;;5067156;28;4985;-60
2023/08/19 14:27:23;;;;;;;;;;;;;;;;;;5067048;28;5255;-59
2023/08/19 14:29:49;;;;;;;;;;;;;;;;;;5066939;28;5063;-59
2023/08/19 14:32:14;;;;;;;;;;;;;;;;;;5049005;28;2642;-59
2023/08/19 14:34:39;;;;;;;;;;;;;;;;;;5067666;28;5233;-60
2023/08/19 14:37:05;;;;;;;;;;;;;;;;;;5066873;28;4623;-59
2023/08/19 14:39:30;;;;;;;;;;;;;;;;;;5066715;28;4471;-58
2023/08/19 14:41:55;;;;;;;;;;;;;;;;;;5066126;28;4862;-59
2023/08/19 14:44:21;;;;;;;;;;;;;;;;;;5067391;28;993;-59
2023/08/19 14:46:46;;;;;;;;;;;;;;;;;;5066653;28;5154;-59
2023/08/19 14:49:11;;;;;;;;;;;;;;;;;;5065317;28;5351;-59
2023/08/19 14:51:36;;;;;;;;;;;;;;;;;;5066920;28;5047;-59
2023/08/19 14:54:02;;;;;;;;;;;;;;;;;;5066242;28;5083;-60
2023/08/19 14:56:27;;;;;;;;;;;;;;;;;;5067240;28;1065;-58
2023/08/19 14:58:53;;;;;;;;;;;;;;;;;;5060548;28;5062;-59
2023/08/19 15:01:18;;;;;;;;;;;;;;;;;;5066914;28;4604;-59
2023/08/19 15:03:44;;;;;;;;;;;;;;;;;;5066210;28;4482;-59
2023/08/19 15:06:09;;;;;;;;;;;;;;;;;;5067009;28;5288;-59
2023/08/19 15:08:34;;;;;;;;;;;;;;;;;;5062585;28;1902;-59
2023/08/19 15:11:00;;;;;;;;;;;;;;;;;;5065728;28;5008;-59
2023/08/19 15:13:25;;;;;;;;;;;;;;;;;;5069859;28;4514;-59
2023/08/19 15:15:51;;;;;;;;;;;;;;;;;;5066698;28;5029;-59
2023/08/19 15:18:17;;;;;;;;;;;;;;;;;;5065236;28;4775;-58
2023/08/19 15:20:42;;;;;;;;;;;;;;;;;;5067634;28;4978;-59
2023/08/19 15:23:07;;;;;;;;;;;;;;;;;;5071116;28;1167;-59
2023/08/19 15:25:32;;;;;;;;;;;;;;;;;;5065939;28;5120;-58
2023/08/19 15:27:58;;;;;;;;;;;;;;;;;;5068886;28;4867;-59
2023/08/19 15:30:23;;;;;;;;;;;;;;;;;;5070630;28;5095;-59
2023/08/19 15:32:48;;;;;;;;;;;;;;;;;;5070450;28;4494;-59
2023/08/19 15:35:14;;;;;;;;;;;;;;;;;;5070763;28;1415;-59
2023/08/19 15:37:39;;;;;;;;;;;;;;;;;;5070408;28;4393;-59
2023/08/19 15:40:05;;;;;;;;;;;;;;;;;;5070014;28;5065;-59
2023/08/19 15:42:30;;;;;;;;;;;;;;;;;;5070192;28;4615;-58
2023/08/19 15:44:55;;;;;;;;;;;;;;;;;;5061217;28;5327;-59
2023/08/19 15:47:21;;;;;;;;;;;;;;;;;;5052353;28;1109;-59
2023/08/19 15:49:46;;;;;;;;;;;;;;;;;;5062203;28;4993;-59
2023/08/19 15:52:12;;;;;;;;;;;;;;;;;;5070088;28;4840;-58
2023/08/19 15:54:37;;;;;;;;;;;;;;;;;;5067571;28;5017;-58
2023/08/19 15:57:03;;;;;;;;;;;;;;;;;;5070096;28;5088;-59
2023/08/19 15:59:28;;;;;;;;;;;;;;;;;;5070089;28;1484;-59
2023/08/19 16:01:53;;;;;;;;;;;;;;;;;;5064975;28;5035;-58
2023/08/19 16:04:18;;;;;;;;;;;;;;;;;;5069431;28;4863;-58
2023/08/19 16:06:44;;;;;;;;;;;;;;;;;;5069642;28;4461;-60
2023/08/19 16:09:09;;;;;;;;;;;;;;;;;;5068862;28;4660;-59
2023/08/19 16:11:34;;;;;;;;;;;;;;;;;;5067204;28;1145;-59
2023/08/19 16:14:00;;;;;;;;;;;;;;;;;;5069409;28;4869;-60
2023/08/19 16:16:25;;;;;;;;;;;;;;;;;;5069581;28;4716;-59
2023/08/19 16:18:51;;;;;;;;;;;;;;;;;;5066297;28;5114;-59
2023/08/19 16:21:16;;;;;;;;;;;;;;;;;;5068201;28;5077;-59
2023/08/19 16:23:41;;;;;;;;;;;;;;;;;;5069197;28;4436;-59
2023/08/19 16:26:07;;;;;;;;;;;;;;;;;;5069769;28;2384;-59
2023/08/19 16:28:32;;;;;;;;;;;;;;;;;;5066166;28;5130;-59
2023/08/19 16:30:57;;;;;;;;;;;;;;;;;;5069254;28;5198;-59
2023/08/19 16:33:23;;;;;;;;;;;;;;;;;;5069207;28;4986;-59
2023/08/19 16:35:54;;;;;;;;;;;;;;;;;;5068959;28;4407;-59
2023/08/19 16:38:19;;;;;;;;;;;;;;;;;;5061975;28;1321;-59
2023/08/19 16:40:44;;;;;;;;;;;;;;;;;;5069043;28;4903;-59
2023/08/19 16:43:10;;;;;;;;;;;;;;;;;;5069186;28;4953;-59
2023/08/19 16:45:35;;;;;;;;;;;;;;;;;;5069188;28;5145;-59
2023/08/19 16:48:00;;;;;;;;;;;;;;;;;;5057032;28;4999;-59
2023/08/19 16:50:25;;;;;;;;;;;;;;;;;;5072597;28;1959;-59
2023/08/19 16:52:51;;;;;;;;;;;;;;;;;;5068193;28;5112;-58